East Gull Lake, Minnesota
Current Conditions -  °F | °C
As of 10:53 PM on Thursday 30 Oct 2014 (Local Time) from KBRD Reporting Station
Clear Clear  
Wind Chill: 19°   Ceiling: Unl
Heat Index: 29°   Visibility: 10mi
Dew Point: 15°   Wind: 13mph
Humidity: 56%   Direction: 10°N
Pressure: 30.41"   Gusts: 24mph
Location:  46.2895°N, 94.0683°W
Report Text: KBRD 310353Z AUTO 01011G21KT 10SM CLR M02/M09 A3041 RMK AO2 PK WND 02026/0301 SLP315 T10171094
Loading
Personal Weather Stations






























Interactive Weather Map
Tropical Storm Tracking
New forecast layout! Learn more

10-Day Weather Forecast

Advertisements
Track Severe Weather on mobile